sensor_id;sensor_type;location;lat;lon;timestamp;P1;durP1;ratioP1;P2;durP2;ratioP2
79149;SDS011;68563;45.644;13.782;2024-01-11T00:02:16;9.80;;;4.95;;
79149;SDS011;68563;45.644;13.782;2024-01-11T00:04:42;10.70;;;5.30;;
79149;SDS011;68563;45.644;13.782;2024-01-11T00:07:09;11.90;;;5.03;;
79149;SDS011;68563;45.644;13.782;2024-01-11T00:09:43;10.05;;;4.95;;
79149;SDS011;68563;45.644;13.782;2024-01-11T00:12:09;9.38;;;4.55;;
79149;SDS011;68563;45.644;13.782;2024-01-11T00:14:35;10.95;;;4.63;;
79149;SDS011;68563;45.644;13.782;2024-01-11T00:17:01;10.93;;;5.22;;
79149;SDS011;68563;45.644;13.782;2024-01-11T00:19:26;9.15;;;4.80;;
79149;SDS011;68563;45.644;13.782;2024-01-11T00:21:52;10.18;;;4.70;;
79149;SDS011;68563;45.644;13.782;2024-01-11T00:24:17;10.55;;;4.57;;
79149;SDS011;68563;45.644;13.782;2024-01-11T00:26:42;11.20;;;4.95;;
79149;SDS011;68563;45.644;13.782;2024-01-11T00:29:08;10.48;;;4.47;;
79149;SDS011;68563;45.644;13.782;2024-01-11T00:31:33;10.73;;;4.25;;
79149;SDS011;68563;45.644;13.782;2024-01-11T00:33:59;8.93;;;4.45;;
79149;SDS011;68563;45.644;13.782;2024-01-11T00:36:24;10.63;;;4.93;;
79149;SDS011;68563;45.644;13.782;2024-01-11T00:38:50;12.10;;;4.30;;
79149;SDS011;68563;45.644;13.782;2024-01-11T00:41:15;9.50;;;4.25;;
79149;SDS011;68563;45.644;13.782;2024-01-11T00:43:40;9.55;;;4.28;;
79149;SDS011;68563;45.644;13.782;2024-01-11T00:46:06;8.43;;;4.25;;
79149;SDS011;68563;45.644;13.782;2024-01-11T00:48:32;8.82;;;4.50;;
79149;SDS011;68563;45.644;13.782;2024-01-11T00:50:57;8.80;;;4.20;;
79149;SDS011;68563;45.644;13.782;2024-01-11T00:53:22;9.48;;;4.63;;
79149;SDS011;68563;45.644;13.782;2024-01-11T00:55:48;8.55;;;4.68;;
79149;SDS011;68563;45.644;13.782;2024-01-11T00:58:13;10.23;;;3.97;;
79149;SDS011;68563;45.644;13.782;2024-01-11T01:00:38;8.98;;;4.28;;
79149;SDS011;68563;45.644;13.782;2024-01-11T01:03:04;7.68;;;3.67;;
79149;SDS011;68563;45.644;13.782;2024-01-11T01:05:29;9.15;;;4.20;;
79149;SDS011;68563;45.644;13.782;2024-01-11T01:07:54;9.15;;;3.95;;
79149;SDS011;68563;45.644;13.782;2024-01-11T01:10:20;7.90;;;3.72;;
79149;SDS011;68563;45.644;13.782;2024-01-11T01:12:45;8.20;;;3.63;;
79149;SDS011;68563;45.644;13.782;2024-01-11T01:15:11;7.95;;;3.42;;
79149;SDS011;68563;45.644;13.782;2024-01-11T01:17:36;8.13;;;3.70;;
79149;SDS011;68563;45.644;13.782;2024-01-11T01:20:02;8.25;;;3.70;;
79149;SDS011;68563;45.644;13.782;2024-01-11T01:22:28;8.63;;;3.58;;
79149;SDS011;68563;45.644;13.782;2024-01-11T01:24:53;9.88;;;3.70;;
79149;SDS011;68563;45.644;13.782;2024-01-11T01:27:19;9.80;;;3.78;;
79149;SDS011;68563;45.644;13.782;2024-01-11T01:29:45;6.78;;;3.50;;
79149;SDS011;68563;45.644;13.782;2024-01-11T01:32:11;8.15;;;3.53;;
79149;SDS011;68563;45.644;13.782;2024-01-11T01:34:36;7.10;;;3.50;;
79149;SDS011;68563;45.644;13.782;2024-01-11T01:37:02;7.47;;;3.38;;
79149;SDS011;68563;45.644;13.782;2024-01-11T01:39:27;8.48;;;3.60;;
79149;SDS011;68563;45.644;13.782;2024-01-11T01:41:53;7.22;;;3.53;;
79149;SDS011;68563;45.644;13.782;2024-01-11T01:44:18;8.40;;;3.72;;
79149;SDS011;68563;45.644;13.782;2024-01-11T01:46:43;7.50;;;3.42;;
79149;SDS011;68563;45.644;13.782;2024-01-11T01:49:09;9.60;;;4.13;;
79149;SDS011;68563;45.644;13.782;2024-01-11T01:51:37;9.65;;;3.40;;
79149;SDS011;68563;45.644;13.782;2024-01-11T01:54:02;7.30;;;3.63;;
79149;SDS011;68563;45.644;13.782;2024-01-11T01:56:28;5.15;;;2.78;;
79149;SDS011;68563;45.644;13.782;2024-01-11T01:58:54;6.10;;;2.97;;
79149;SDS011;68563;45.644;13.782;2024-01-11T02:01:21;6.85;;;3.20;;
79149;SDS011;68563;45.644;13.782;2024-01-11T02:03:49;6.80;;;3.42;;
79149;SDS011;68563;45.644;13.782;2024-01-11T02:06:15;6.88;;;3.30;;
79149;SDS011;68563;45.644;13.782;2024-01-11T02:08:44;6.60;;;3.25;;
79149;SDS011;68563;45.644;13.782;2024-01-11T02:11:10;7.50;;;3.08;;
79149;SDS011;68563;45.644;13.782;2024-01-11T02:13:36;7.00;;;3.13;;
79149;SDS011;68563;45.644;13.782;2024-01-11T02:16:02;6.30;;;3.00;;
79149;SDS011;68563;45.644;13.782;2024-01-11T02:18:28;5.85;;;2.95;;
79149;SDS011;68563;45.644;13.782;2024-01-11T02:20:54;8.10;;;3.67;;
79149;SDS011;68563;45.644;13.782;2024-01-11T02:23:21;7.57;;;3.20;;
79149;SDS011;68563;45.644;13.782;2024-01-11T02:25:49;6.85;;;3.33;;
79149;SDS011;68563;45.644;13.782;2024-01-11T02:28:14;5.57;;;3.20;;
79149;SDS011;68563;45.644;13.782;2024-01-11T02:30:40;5.65;;;2.92;;
79149;SDS011;68563;45.644;13.782;2024-01-11T02:33:05;6.45;;;3.00;;
79149;SDS011;68563;45.644;13.782;2024-01-11T02:35:31;6.47;;;3.13;;
79149;SDS011;68563;45.644;13.782;2024-01-11T02:37:57;5.35;;;2.88;;
79149;SDS011;68563;45.644;13.782;2024-01-11T02:40:23;7.63;;;3.45;;
79149;SDS011;68563;45.644;13.782;2024-01-11T02:42:49;6.47;;;2.97;;
79149;SDS011;68563;45.644;13.782;2024-01-11T02:45:14;6.45;;;2.88;;
79149;SDS011;68563;45.644;13.782;2024-01-11T02:47:40;6.85;;;3.30;;
79149;SDS011;68563;45.644;13.782;2024-01-11T02:50:06;5.93;;;2.90;;
79149;SDS011;68563;45.644;13.782;2024-01-11T02:52:32;6.55;;;3.40;;
79149;SDS011;68563;45.644;13.782;2024-01-11T02:54:58;5.45;;;2.58;;
79149;SDS011;68563;45.644;13.782;2024-01-11T02:57:23;6.93;;;2.92;;
79149;SDS011;68563;45.644;13.782;2024-01-11T02:59:49;7.07;;;3.10;;
79149;SDS011;68563;45.644;13.782;2024-01-11T03:02:14;6.82;;;3.22;;
79149;SDS011;68563;45.644;13.782;2024-01-11T03:04:40;6.65;;;3.05;;
79149;SDS011;68563;45.644;13.782;2024-01-11T03:07:05;6.95;;;3.10;;
79149;SDS011;68563;45.644;13.782;2024-01-11T03:09:31;6.78;;;3.30;;
79149;SDS011;68563;45.644;13.782;2024-01-11T03:11:56;6.30;;;3.35;;
79149;SDS011;68563;45.644;13.782;2024-01-11T03:14:21;7.90;;;3.53;;
79149;SDS011;68563;45.644;13.782;2024-01-11T03:16:47;7.40;;;3.42;;
79149;SDS011;68563;45.644;13.782;2024-01-11T03:19:12;8.13;;;3.80;;
79149;SDS011;68563;45.644;13.782;2024-01-11T03:21:43;6.68;;;3.25;;
79149;SDS011;68563;45.644;13.782;2024-01-11T03:24:09;7.10;;;3.33;;
79149;SDS011;68563;45.644;13.782;2024-01-11T03:26:34;6.85;;;3.15;;
79149;SDS011;68563;45.644;13.782;2024-01-11T03:29:00;10.13;;;3.60;;
79149;SDS011;68563;45.644;13.782;2024-01-11T03:31:25;7.22;;;3.38;;
79149;SDS011;68563;45.644;13.782;2024-01-11T03:33:51;7.47;;;3.22;;
79149;SDS011;68563;45.644;13.782;2024-01-11T03:36:16;7.43;;;3.40;;
79149;SDS011;68563;45.644;13.782;2024-01-11T03:38:41;7.07;;;3.30;;
79149;SDS011;68563;45.644;13.782;2024-01-11T03:41:07;7.10;;;3.20;;
79149;SDS011;68563;45.644;13.782;2024-01-11T03:43:34;6.32;;;3.50;;
79149;SDS011;68563;45.644;13.782;2024-01-11T03:46:00;7.43;;;3.30;;
79149;SDS011;68563;45.644;13.782;2024-01-11T03:48:26;6.97;;;3.25;;
79149;SDS011;68563;45.644;13.782;2024-01-11T03:50:51;5.63;;;3.00;;
79149;SDS011;68563;45.644;13.782;2024-01-11T03:53:17;6.63;;;3.20;;
79149;SDS011;68563;45.644;13.782;2024-01-11T03:55:42;6.45;;;3.28;;
79149;SDS011;68563;45.644;13.782;2024-01-11T03:58:07;6.18;;;2.90;;
79149;SDS011;68563;45.644;13.782;2024-01-11T04:00:33;6.28;;;2.78;;
79149;SDS011;68563;45.644;13.782;2024-01-11T04:02:58;7.22;;;3.10;;
79149;SDS011;68563;45.644;13.782;2024-01-11T04:05:24;5.40;;;2.80;;
79149;SDS011;68563;45.644;13.782;2024-01-11T04:07:49;6.40;;;2.92;;
79149;SDS011;68563;45.644;13.782;2024-01-11T04:10:15;5.68;;;2.92;;
79149;SDS011;68563;45.644;13.782;2024-01-11T04:12:42;5.75;;;2.80;;
79149;SDS011;68563;45.644;13.782;2024-01-11T04:15:08;5.72;;;2.50;;
79149;SDS011;68563;45.644;13.782;2024-01-11T04:17:33;4.95;;;2.65;;
79149;SDS011;68563;45.644;13.782;2024-01-11T04:19:59;4.57;;;2.53;;
79149;SDS011;68563;45.644;13.782;2024-01-11T04:22:24;6.45;;;3.00;;
79149;SDS011;68563;45.644;13.782;2024-01-11T04:24:49;8.30;;;3.10;;
79149;SDS011;68563;45.644;13.782;2024-01-11T04:27:15;6.05;;;2.90;;
79149;SDS011;68563;45.644;13.782;2024-01-11T04:29:40;5.50;;;2.55;;
79149;SDS011;68563;45.644;13.782;2024-01-11T04:32:06;5.28;;;2.40;;
79149;SDS011;68563;45.644;13.782;2024-01-11T04:34:31;5.90;;;3.05;;
79149;SDS011;68563;45.644;13.782;2024-01-11T04:36:56;7.10;;;2.92;;
79149;SDS011;68563;45.644;13.782;2024-01-11T04:39:22;7.13;;;2.78;;
79149;SDS011;68563;45.644;13.782;2024-01-11T04:41:47;6.30;;;3.17;;
79149;SDS011;68563;45.644;13.782;2024-01-11T04:44:13;6.53;;;2.85;;
79149;SDS011;68563;45.644;13.782;2024-01-11T04:46:38;5.93;;;2.90;;
79149;SDS011;68563;45.644;13.782;2024-01-11T04:49:03;6.55;;;3.03;;
79149;SDS011;68563;45.644;13.782;2024-01-11T04:51:29;5.97;;;3.08;;
79149;SDS011;68563;45.644;13.782;2024-01-11T04:53:54;7.55;;;3.33;;
79149;SDS011;68563;45.644;13.782;2024-01-11T04:56:20;7.40;;;3.30;;
79149;SDS011;68563;45.644;13.782;2024-01-11T04:58:45;5.65;;;2.60;;
79149;SDS011;68563;45.644;13.782;2024-01-11T05:01:11;7.65;;;3.00;;
79149;SDS011;68563;45.644;13.782;2024-01-11T05:03:38;5.97;;;3.00;;
79149;SDS011;68563;45.644;13.782;2024-01-11T05:06:03;6.30;;;3.15;;
79149;SDS011;68563;45.644;13.782;2024-01-11T05:08:29;7.50;;;2.90;;
79149;SDS011;68563;45.644;13.782;2024-01-11T05:10:54;7.70;;;3.03;;
79149;SDS011;68563;45.644;13.782;2024-01-11T05:13:20;5.95;;;2.85;;
79149;SDS011;68563;45.644;13.782;2024-01-11T05:15:46;7.72;;;3.25;;
79149;SDS011;68563;45.644;13.782;2024-01-11T05:18:12;6.15;;;3.40;;
79149;SDS011;68563;45.644;13.782;2024-01-11T05:20:37;7.68;;;3.05;;
79149;SDS011;68563;45.644;13.782;2024-01-11T05:23:03;5.68;;;2.58;;
79149;SDS011;68563;45.644;13.782;2024-01-11T05:25:29;6.00;;;3.10;;
79149;SDS011;68563;45.644;13.782;2024-01-11T05:27:59;5.68;;;2.67;;
79149;SDS011;68563;45.644;13.782;2024-01-11T05:30:27;6.50;;;2.75;;
79149;SDS011;68563;45.644;13.782;2024-01-11T05:32:53;5.57;;;2.75;;
79149;SDS011;68563;45.644;13.782;2024-01-11T05:35:19;5.15;;;2.33;;
79149;SDS011;68563;45.644;13.782;2024-01-11T05:37:44;5.47;;;2.47;;
79149;SDS011;68563;45.644;13.782;2024-01-11T05:40:10;5.55;;;2.58;;
79149;SDS011;68563;45.644;13.782;2024-01-11T05:42:35;4.10;;;2.30;;
79149;SDS011;68563;45.644;13.782;2024-01-11T05:45:02;4.72;;;2.58;;
79149;SDS011;68563;45.644;13.782;2024-01-11T05:47:28;5.50;;;2.60;;
79149;SDS011;68563;45.644;13.782;2024-01-11T05:49:54;6.78;;;2.85;;
79149;SDS011;68563;45.644;13.782;2024-01-11T05:52:19;6.90;;;2.60;;
79149;SDS011;68563;45.644;13.782;2024-01-11T05:54:45;4.43;;;2.38;;
79149;SDS011;68563;45.644;13.782;2024-01-11T05:57:10;3.97;;;2.13;;
79149;SDS011;68563;45.644;13.782;2024-01-11T05:59:35;5.85;;;2.33;;
79149;SDS011;68563;45.644;13.782;2024-01-11T06:02:01;5.03;;;2.35;;
79149;SDS011;68563;45.644;13.782;2024-01-11T06:04:26;4.45;;;2.40;;
79149;SDS011;68563;45.644;13.782;2024-01-11T06:06:52;5.00;;;2.53;;
79149;SDS011;68563;45.644;13.782;2024-01-11T06:09:17;4.47;;;2.40;;
79149;SDS011;68563;45.644;13.782;2024-01-11T06:11:43;4.05;;;2.28;;
79149;SDS011;68563;45.644;13.782;2024-01-11T06:14:08;5.82;;;2.55;;
79149;SDS011;68563;45.644;13.782;2024-01-11T06:16:34;6.10;;;2.30;;
79149;SDS011;68563;45.644;13.782;2024-01-11T06:18:59;9.38;;;2.50;;
79149;SDS011;68563;45.644;13.782;2024-01-11T06:21:25;4.43;;;2.22;;
79149;SDS011;68563;45.644;13.782;2024-01-11T06:23:51;4.63;;;2.40;;
79149;SDS011;68563;45.644;13.782;2024-01-11T06:26:16;5.07;;;2.75;;
79149;SDS011;68563;45.644;13.782;2024-01-11T06:28:41;5.47;;;2.50;;
79149;SDS011;68563;45.644;13.782;2024-01-11T06:31:09;6.00;;;2.55;;
79149;SDS011;68563;45.644;13.782;2024-01-11T06:33:35;4.80;;;2.30;;
79149;SDS011;68563;45.644;13.782;2024-01-11T06:36:02;6.22;;;2.80;;
79149;SDS011;68563;45.644;13.782;2024-01-11T06:38:31;4.90;;;2.53;;
79149;SDS011;68563;45.644;13.782;2024-01-11T06:40:56;6.20;;;2.70;;
79149;SDS011;68563;45.644;13.782;2024-01-11T06:43:22;5.10;;;2.45;;
79149;SDS011;68563;45.644;13.782;2024-01-11T06:45:47;5.53;;;2.42;;
79149;SDS011;68563;45.644;13.782;2024-01-11T06:48:13;6.03;;;3.05;;
79149;SDS011;68563;45.644;13.782;2024-01-11T06:50:38;6.40;;;2.78;;
79149;SDS011;68563;45.644;13.782;2024-01-11T06:53:03;6.82;;;2.95;;
79149;SDS011;68563;45.644;13.782;2024-01-11T06:55:29;7.22;;;2.88;;
79149;SDS011;68563;45.644;13.782;2024-01-11T06:57:55;7.70;;;2.83;;
79149;SDS011;68563;45.644;13.782;2024-01-11T07:00:20;8.20;;;3.42;;
79149;SDS011;68563;45.644;13.782;2024-01-11T07:02:46;9.38;;;2.70;;
79149;SDS011;68563;45.644;13.782;2024-01-11T07:05:12;5.50;;;2.55;;
79149;SDS011;68563;45.644;13.782;2024-01-11T07:07:37;7.10;;;2.80;;
79149;SDS011;68563;45.644;13.782;2024-01-11T07:10:03;5.93;;;2.47;;
79149;SDS011;68563;45.644;13.782;2024-01-11T07:12:30;5.18;;;2.50;;
79149;SDS011;68563;45.644;13.782;2024-01-11T07:14:56;5.45;;;2.17;;
79149;SDS011;68563;45.644;13.782;2024-01-11T07:17:21;5.50;;;2.67;;
79149;SDS011;68563;45.644;13.782;2024-01-11T07:19:47;5.10;;;2.60;;
79149;SDS011;68563;45.644;13.782;2024-01-11T07:22:13;6.03;;;2.72;;
79149;SDS011;68563;45.644;13.782;2024-01-11T07:24:38;6.05;;;2.53;;
79149;SDS011;68563;45.644;13.782;2024-01-11T07:27:07;4.97;;;2.53;;
79149;SDS011;68563;45.644;13.782;2024-01-11T07:29:33;5.85;;;2.40;;
79149;SDS011;68563;45.644;13.782;2024-01-11T07:31:58;5.60;;;2.55;;
79149;SDS011;68563;45.644;13.782;2024-01-11T07:34:24;6.07;;;2.88;;
79149;SDS011;68563;45.644;13.782;2024-01-11T07:36:51;3.83;;;2.17;;
79149;SDS011;68563;45.644;13.782;2024-01-11T07:39:17;4.78;;;2.55;;
79149;SDS011;68563;45.644;13.782;2024-01-11T07:41:43;5.78;;;2.65;;
79149;SDS011;68563;45.644;13.782;2024-01-11T07:44:08;5.25;;;2.50;;
79149;SDS011;68563;45.644;13.782;2024-01-11T07:46:33;4.75;;;2.40;;
79149;SDS011;68563;45.644;13.782;2024-01-11T07:48:59;5.10;;;2.53;;
79149;SDS011;68563;45.644;13.782;2024-01-11T07:51:24;5.22;;;2.60;;
79149;SDS011;68563;45.644;13.782;2024-01-11T07:53:50;4.55;;;2.38;;
79149;SDS011;68563;45.644;13.782;2024-01-11T07:56:15;4.90;;;2.67;;
79149;SDS011;68563;45.644;13.782;2024-01-11T07:58:42;5.82;;;2.40;;
79149;SDS011;68563;45.644;13.782;2024-01-11T08:01:07;4.65;;;2.47;;
79149;SDS011;68563;45.644;13.782;2024-01-11T08:03:33;4.75;;;2.72;;
79149;SDS011;68563;45.644;13.782;2024-01-11T08:05:59;6.40;;;2.25;;
79149;SDS011;68563;45.644;13.782;2024-01-11T08:08:25;5.95;;;2.67;;
79149;SDS011;68563;45.644;13.782;2024-01-11T08:10:51;5.22;;;2.40;;
79149;SDS011;68563;45.644;13.782;2024-01-11T08:13:17;5.53;;;2.30;;
79149;SDS011;68563;45.644;13.782;2024-01-11T08:15:43;4.38;;;2.40;;
79149;SDS011;68563;45.644;13.782;2024-01-11T08:18:08;4.30;;;2.42;;
79149;SDS011;68563;45.644;13.782;2024-01-11T08:20:34;3.88;;;2.28;;
79149;SDS011;68563;45.644;13.782;2024-01-11T08:22:59;4.07;;;2.05;;
79149;SDS011;68563;45.644;13.782;2024-01-11T08:25:25;5.97;;;2.45;;
79149;SDS011;68563;45.644;13.782;2024-01-11T08:27:50;6.15;;;2.75;;
79149;SDS011;68563;45.644;13.782;2024-01-11T08:30:15;4.80;;;2.20;;
79149;SDS011;68563;45.644;13.782;2024-01-11T08:32:41;3.70;;;2.08;;
79149;SDS011;68563;45.644;13.782;2024-01-11T08:35:08;5.13;;;2.40;;
79149;SDS011;68563;45.644;13.782;2024-01-11T08:37:37;4.03;;;2.25;;
79149;SDS011;68563;45.644;13.782;2024-01-11T08:40:04;5.30;;;2.25;;
79149;SDS011;68563;45.644;13.782;2024-01-11T08:42:31;4.65;;;2.20;;
79149;SDS011;68563;45.644;13.782;2024-01-11T08:44:56;4.45;;;2.47;;
79149;SDS011;68563;45.644;13.782;2024-01-11T08:47:22;4.80;;;1.92;;
79149;SDS011;68563;45.644;13.782;2024-01-11T08:49:47;3.55;;;2.10;;
79149;SDS011;68563;45.644;13.782;2024-01-11T08:52:13;6.25;;;2.33;;
79149;SDS011;68563;45.644;13.782;2024-01-11T08:54:38;7.70;;;2.65;;
79149;SDS011;68563;45.644;13.782;2024-01-11T08:57:04;4.53;;;2.22;;
79149;SDS011;68563;45.644;13.782;2024-01-11T08:59:29;7.60;;;2.30;;
79149;SDS011;68563;45.644;13.782;2024-01-11T09:01:55;6.22;;;2.75;;
79149;SDS011;68563;45.644;13.782;2024-01-11T09:04:20;4.78;;;2.38;;
79149;SDS011;68563;45.644;13.782;2024-01-11T09:06:45;5.30;;;2.15;;
79149;SDS011;68563;45.644;13.782;2024-01-11T09:09:11;4.05;;;1.95;;
79149;SDS011;68563;45.644;13.782;2024-01-11T09:11:38;5.13;;;2.17;;
79149;SDS011;68563;45.644;13.782;2024-01-11T09:14:06;5.63;;;2.50;;
79149;SDS011;68563;45.644;13.782;2024-01-11T09:16:31;4.65;;;2.20;;
79149;SDS011;68563;45.644;13.782;2024-01-11T09:18:57;7.78;;;2.30;;
79149;SDS011;68563;45.644;13.782;2024-01-11T09:21:25;5.00;;;2.78;;
79149;SDS011;68563;45.644;13.782;2024-01-11T09:23:50;4.80;;;2.20;;
79149;SDS011;68563;45.644;13.782;2024-01-11T09:26:16;4.53;;;2.10;;
79149;SDS011;68563;45.644;13.782;2024-01-11T09:28:41;5.35;;;2.40;;
79149;SDS011;68563;45.644;13.782;2024-01-11T09:31:07;5.15;;;2.13;;
79149;SDS011;68563;45.644;13.782;2024-01-11T09:33:32;4.88;;;2.33;;
79149;SDS011;68563;45.644;13.782;2024-01-11T09:35:57;4.03;;;2.22;;
79149;SDS011;68563;45.644;13.782;2024-01-11T09:38:23;4.30;;;2.20;;
79149;SDS011;68563;45.644;13.782;2024-01-11T09:40:51;4.95;;;2.20;;
79149;SDS011;68563;45.644;13.782;2024-01-11T09:43:29;4.65;;;1.92;;
79149;SDS011;68563;45.644;13.782;2024-01-11T09:45:55;4.05;;;2.10;;
79149;SDS011;68563;45.644;13.782;2024-01-11T09:48:21;5.70;;;2.20;;
79149;SDS011;68563;45.644;13.782;2024-01-11T09:50:49;4.57;;;2.13;;
79149;SDS011;68563;45.644;13.782;2024-01-11T09:53:17;4.13;;;2.00;;
79149;SDS011;68563;45.644;13.782;2024-01-11T09:55:45;4.07;;;1.70;;
79149;SDS011;68563;45.644;13.782;2024-01-11T09:58:12;5.07;;;2.28;;
79149;SDS011;68563;45.644;13.782;2024-01-11T10:00:39;5.90;;;2.20;;
79149;SDS011;68563;45.644;13.782;2024-01-11T10:03:05;3.70;;;1.88;;
79149;SDS011;68563;45.644;13.782;2024-01-11T10:05:31;5.57;;;2.33;;
79149;SDS011;68563;45.644;13.782;2024-01-11T10:07:59;3.63;;;1.77;;
79149;SDS011;68563;45.644;13.782;2024-01-11T10:10:24;4.25;;;1.90;;
79149;SDS011;68563;45.644;13.782;2024-01-11T10:12:50;3.65;;;2.00;;
79149;SDS011;68563;45.644;13.782;2024-01-11T10:15:16;14.18;;;2.88;;
79149;SDS011;68563;45.644;13.782;2024-01-11T10:20:13;8.07;;;2.30;;
79149;SDS011;68563;45.644;13.782;2024-01-11T10:22:40;4.22;;;2.20;;
79149;SDS011;68563;45.644;13.782;2024-01-11T10:25:10;6.15;;;2.13;;
79149;SDS011;68563;45.644;13.782;2024-01-11T10:30:07;3.15;;;1.73;;
79149;SDS011;68563;45.644;13.782;2024-01-11T10:32:33;5.68;;;1.90;;
79149;SDS011;68563;45.644;13.782;2024-01-11T10:35:00;3.10;;;1.65;;
79149;SDS011;68563;45.644;13.782;2024-01-11T10:37:27;4.45;;;1.88;;
79149;SDS011;68563;45.644;13.782;2024-01-11T10:39:55;3.88;;;1.90;;
79149;SDS011;68563;45.644;13.782;2024-01-11T10:42:23;2.78;;;1.50;;
79149;SDS011;68563;45.644;13.782;2024-01-11T10:44:52;3.60;;;1.75;;
79149;SDS011;68563;45.644;13.782;2024-01-11T10:47:21;3.63;;;1.80;;
79149;SDS011;68563;45.644;13.782;2024-01-11T10:49:49;5.63;;;2.08;;
79149;SDS011;68563;45.644;13.782;2024-01-11T10:52:20;3.97;;;2.03;;
79149;SDS011;68563;45.644;13.782;2024-01-11T10:54:53;3.97;;;2.05;;
79149;SDS011;68563;45.644;13.782;2024-01-11T10:57:20;3.78;;;1.70;;
79149;SDS011;68563;45.644;13.782;2024-01-11T10:59:46;4.15;;;1.80;;
79149;SDS011;68563;45.644;13.782;2024-01-11T11:02:13;3.90;;;1.90;;
79149;SDS011;68563;45.644;13.782;2024-01-11T11:04:40;5.15;;;2.13;;
79149;SDS011;68563;45.644;13.782;2024-01-11T11:07:07;2.83;;;1.67;;
79149;SDS011;68563;45.644;13.782;2024-01-11T11:09:34;3.75;;;1.75;;
79149;SDS011;68563;45.644;13.782;2024-01-11T11:12:00;3.28;;;1.80;;
79149;SDS011;68563;45.644;13.782;2024-01-11T11:14:25;4.90;;;1.92;;
79149;SDS011;68563;45.644;13.782;2024-01-11T11:16:53;3.78;;;1.80;;
79149;SDS011;68563;45.644;13.782;2024-01-11T11:19:19;4.13;;;1.90;;
79149;SDS011;68563;45.644;13.782;2024-01-11T11:21:46;3.65;;;1.95;;
79149;SDS011;68563;45.644;13.782;2024-01-11T11:24:13;3.80;;;1.80;;
79149;SDS011;68563;45.644;13.782;2024-01-11T11:26:39;2.95;;;1.63;;
79149;SDS011;68563;45.644;13.782;2024-01-11T11:29:04;3.03;;;1.65;;
79149;SDS011;68563;45.644;13.782;2024-01-11T11:31:34;3.95;;;1.75;;
79149;SDS011;68563;45.644;13.782;2024-01-11T11:34:06;4.35;;;2.15;;
79149;SDS011;68563;45.644;13.782;2024-01-11T11:36:32;3.60;;;1.80;;
79149;SDS011;68563;45.644;13.782;2024-01-11T11:39:00;3.17;;;1.80;;
79149;SDS011;68563;45.644;13.782;2024-01-11T11:41:27;3.75;;;1.90;;
79149;SDS011;68563;45.644;13.782;2024-01-11T11:43:52;3.30;;;1.88;;
79149;SDS011;68563;45.644;13.782;2024-01-11T11:46:18;4.00;;;1.85;;
79149;SDS011;68563;45.644;13.782;2024-01-11T11:48:47;3.95;;;1.90;;
79149;SDS011;68563;45.644;13.782;2024-01-11T11:51:15;3.13;;;1.83;;
79149;SDS011;68563;45.644;13.782;2024-01-11T11:53:41;4.05;;;1.73;;
79149;SDS011;68563;45.644;13.782;2024-01-11T11:56:07;3.20;;;1.80;;
79149;SDS011;68563;45.644;13.782;2024-01-11T11:58:37;6.43;;;1.60;;
79149;SDS011;68563;45.644;13.782;2024-01-11T12:01:06;4.10;;;1.67;;
79149;SDS011;68563;45.644;13.782;2024-01-11T12:03:35;3.22;;;1.67;;
79149;SDS011;68563;45.644;13.782;2024-01-11T12:06:02;3.05;;;1.63;;
79149;SDS011;68563;45.644;13.782;2024-01-11T12:08:28;3.67;;;1.83;;
79149;SDS011;68563;45.644;13.782;2024-01-11T12:10:54;3.35;;;1.80;;
79149;SDS011;68563;45.644;13.782;2024-01-11T12:13:20;2.40;;;1.40;;
79149;SDS011;68563;45.644;13.782;2024-01-11T12:15:46;3.30;;;1.88;;
79149;SDS011;68563;45.644;13.782;2024-01-11T12:18:11;3.13;;;1.70;;
79149;SDS011;68563;45.644;13.782;2024-01-11T12:20:37;5.10;;;2.00;;
79149;SDS011;68563;45.644;13.782;2024-01-11T12:23:02;3.15;;;1.90;;
79149;SDS011;68563;45.644;13.782;2024-01-11T12:25:29;3.15;;;1.67;;
79149;SDS011;68563;45.644;13.782;2024-01-11T12:27:55;4.10;;;1.80;;
79149;SDS011;68563;45.644;13.782;2024-01-11T12:30:25;2.85;;;1.75;;
79149;SDS011;68563;45.644;13.782;2024-01-11T12:32:51;4.30;;;1.90;;
79149;SDS011;68563;45.644;13.782;2024-01-11T12:35:18;4.85;;;2.13;;
79149;SDS011;68563;45.644;13.782;2024-01-11T12:37:59;4.68;;;2.10;;
79149;SDS011;68563;45.644;13.782;2024-01-11T12:40:29;5.47;;;1.80;;
79149;SDS011;68563;45.644;13.782;2024-01-11T12:42:57;5.55;;;2.10;;
79149;SDS011;68563;45.644;13.782;2024-01-11T12:45:24;3.65;;;2.05;;
79149;SDS011;68563;45.644;13.782;2024-01-11T12:47:51;3.17;;;1.90;;
79149;SDS011;68563;45.644;13.782;2024-01-11T12:50:17;4.63;;;2.22;;
79149;SDS011;68563;45.644;13.782;2024-01-11T12:52:42;4.32;;;1.80;;
79149;SDS011;68563;45.644;13.782;2024-01-11T12:55:13;5.80;;;1.95;;
79149;SDS011;68563;45.644;13.782;2024-01-11T12:57:43;4.32;;;2.10;;
79149;SDS011;68563;45.644;13.782;2024-01-11T13:00:12;7.70;;;2.50;;
79149;SDS011;68563;45.644;13.782;2024-01-11T13:02:41;6.88;;;2.20;;
79149;SDS011;68563;45.644;13.782;2024-01-11T13:05:11;7.68;;;2.45;;
79149;SDS011;68563;45.644;13.782;2024-01-11T13:07:37;4.28;;;2.22;;
79149;SDS011;68563;45.644;13.782;2024-01-11T13:10:03;4.38;;;2.33;;
79149;SDS011;68563;45.644;13.782;2024-01-11T13:12:29;6.43;;;2.20;;
79149;SDS011;68563;45.644;13.782;2024-01-11T13:14:55;4.03;;;2.00;;
79149;SDS011;68563;45.644;13.782;2024-01-11T13:17:21;4.88;;;2.45;;
79149;SDS011;68563;45.644;13.782;2024-01-11T13:19:46;5.60;;;2.53;;
79149;SDS011;68563;45.644;13.782;2024-01-11T13:22:12;6.65;;;2.30;;
79149;SDS011;68563;45.644;13.782;2024-01-11T13:24:38;4.47;;;2.10;;
79149;SDS011;68563;45.644;13.782;2024-01-11T13:27:03;4.90;;;2.35;;
79149;SDS011;68563;45.644;13.782;2024-01-11T13:29:29;5.10;;;2.40;;
79149;SDS011;68563;45.644;13.782;2024-01-11T13:31:55;6.20;;;2.55;;
79149;SDS011;68563;45.644;13.782;2024-01-11T13:34:21;7.30;;;3.15;;
79149;SDS011;68563;45.644;13.782;2024-01-11T13:36:46;5.18;;;2.78;;
79149;SDS011;68563;45.644;13.782;2024-01-11T13:39:11;6.13;;;3.30;;
79149;SDS011;68563;45.644;13.782;2024-01-11T13:41:37;6.28;;;4.00;;
79149;SDS011;68563;45.644;13.782;2024-01-11T13:44:02;7.00;;;2.63;;
79149;SDS011;68563;45.644;13.782;2024-01-11T13:46:30;3.83;;;1.98;;
79149;SDS011;68563;45.644;13.782;2024-01-11T13:48:56;4.05;;;2.33;;
79149;SDS011;68563;45.644;13.782;2024-01-11T13:51:21;3.60;;;2.00;;
79149;SDS011;68563;45.644;13.782;2024-01-11T13:53:47;4.55;;;2.20;;
79149;SDS011;68563;45.644;13.782;2024-01-11T13:56:12;3.80;;;2.30;;
79149;SDS011;68563;45.644;13.782;2024-01-11T13:58:37;4.38;;;2.28;;
79149;SDS011;68563;45.644;13.782;2024-01-11T14:01:03;4.05;;;2.08;;
79149;SDS011;68563;45.644;13.782;2024-01-11T14:03:29;4.85;;;2.40;;
79149;SDS011;68563;45.644;13.782;2024-01-11T14:05:54;4.30;;;2.35;;
79149;SDS011;68563;45.644;13.782;2024-01-11T14:08:20;4.03;;;2.20;;
79149;SDS011;68563;45.644;13.782;2024-01-11T14:10:45;3.88;;;1.98;;
79149;SDS011;68563;45.644;13.782;2024-01-11T14:13:10;5.72;;;2.75;;
79149;SDS011;68563;45.644;13.782;2024-01-11T14:15:36;5.90;;;2.97;;
79149;SDS011;68563;45.644;13.782;2024-01-11T14:18:01;4.15;;;2.42;;
79149;SDS011;68563;45.644;13.782;2024-01-11T14:20:28;4.10;;;2.42;;
79149;SDS011;68563;45.644;13.782;2024-01-11T14:22:54;6.97;;;2.40;;
79149;SDS011;68563;45.644;13.782;2024-01-11T14:25:19;4.55;;;2.55;;
79149;SDS011;68563;45.644;13.782;2024-01-11T14:27:48;5.07;;;2.60;;
79149;SDS011;68563;45.644;13.782;2024-01-11T14:30:14;6.07;;;2.58;;
79149;SDS011;68563;45.644;13.782;2024-01-11T14:32:39;4.97;;;2.78;;